createdAt,value
2018-09-20T00:00:16.218Z,33.5
2018-09-20T00:01:18.649Z,33.5
2018-09-20T00:02:20.811Z,33.4
2018-09-20T00:03:23.248Z,33.5
2018-09-20T00:04:25.669Z,33.6
2018-09-20T00:05:28.097Z,33.5
2018-09-20T00:06:30.552Z,33.5
2018-09-20T00:07:33.028Z,33.4
2018-09-20T00:08:35.494Z,33.5
2018-09-20T00:09:37.958Z,33.5
2018-09-20T00:10:40.108Z,33.6
2018-09-20T00:11:42.530Z,33.5
2018-09-20T00:12:44.957Z,33.6
2018-09-20T00:13:47.117Z,33.6
2018-09-20T00:14:49.246Z,33.6
2018-09-20T00:15:51.677Z,33.6
2018-09-20T00:16:54.108Z,33.5
2018-09-20T00:17:56.553Z,33.6
2018-09-20T00:18:58.993Z,33.6
2018-09-20T00:20:01.441Z,33.6
2018-09-20T00:21:03.872Z,33.6
2018-09-20T00:22:06.304Z,33.6
2018-09-20T00:23:08.734Z,33.5
2018-09-20T00:24:11.165Z,33.6
2018-09-20T00:25:13.595Z,33.6
2018-09-20T00:26:15.772Z,33.6
2018-09-20T00:27:18.197Z,33.5
2018-09-20T00:28:20.627Z,33.5
2018-09-20T00:29:22.777Z,33.7
2018-09-20T00:30:25.209Z,33.6
2018-09-20T00:31:27.645Z,33.6
2018-09-20T00:32:30.083Z,33.6
2018-09-20T00:33:32.519Z,33.5
2018-09-20T00:34:34.949Z,33.6
2018-09-20T00:35:37.425Z,33.7
2018-09-20T00:36:39.846Z,33.5
2018-09-20T00:37:42.276Z,33.7
2018-09-20T00:38:44.712Z,33.6
2018-09-20T00:39:47.144Z,33.7
2018-09-20T00:40:49.571Z,33.6
2018-09-20T00:41:52.008Z,33.6
2018-09-20T00:42:54.436Z,33.7
2018-09-20T00:43:56.596Z,33.7
2018-09-20T00:44:59.037Z,33.8
2018-09-20T00:46:01.474Z,33.6
2018-09-20T00:47:03.905Z,33.8
2018-09-20T00:48:06.333Z,33.6
2018-09-20T00:49:08.493Z,33.6
2018-09-20T00:50:10.912Z,33.6
2018-09-20T00:51:13.348Z,33.7
2018-09-20T00:52:15.514Z,33.6
2018-09-20T00:53:17.957Z,33.7
2018-09-20T00:54:20.433Z,33.6
2018-09-20T00:55:22.898Z,33.7
2018-09-20T00:56:25.313Z,33.7
2018-09-20T00:57:27.745Z,33.6
2018-09-20T00:58:30.176Z,33.8
2018-09-20T00:59:32.605Z,33.6
2018-09-20T01:00:34.756Z,33.8
2018-09-20T01:01:37.186Z,33.7
2018-09-20T01:02:39.620Z,33.6
2018-09-20T01:03:42.054Z,33.7
2018-09-20T01:04:44.492Z,33.8
2018-09-20T01:05:46.926Z,33.7
2018-09-20T01:06:49.375Z,33.6
2018-09-20T01:07:51.808Z,33.8
2018-09-20T01:08:54.227Z,33.7
2018-09-20T01:09:56.654Z,33.8
2018-09-20T01:10:58.817Z,33.7
2018-09-20T01:12:01.246Z,33.8
2018-09-20T01:13:03.687Z,33.8
2018-09-20T01:14:06.121Z,33.7
2018-09-20T01:15:08.552Z,33.8
2018-09-20T01:16:10.736Z,33.7
2018-09-20T01:17:12.897Z,33.7
2018-09-20T01:18:15.337Z,33.6
2018-09-20T01:19:17.767Z,33.8
2018-09-20T01:20:20.196Z,33.7
2018-09-20T01:21:22.627Z,33.6
2018-09-20T01:22:24.794Z,33.8
2018-09-20T01:23:27.217Z,33.8
2018-09-20T01:24:29.661Z,33.8
2018-09-20T01:25:31.542Z,33.7
2018-09-20T01:26:33.980Z,33.7
2018-09-20T01:27:36.409Z,33.7
2018-09-20T01:28:38.837Z,33.7
2018-09-20T01:29:41.268Z,33.8
2018-09-20T01:30:43.702Z,34
2018-09-20T01:31:46.125Z,33.7
2018-09-20T01:32:48.587Z,33.8
2018-09-20T01:33:51.032Z,33.9
2018-09-20T01:34:53.465Z,33.9
2018-09-20T01:35:55.895Z,33.8
2018-09-20T01:36:58.328Z,33.9
2018-09-20T01:38:00.791Z,33.8
2018-09-20T01:39:02.938Z,33.8
2018-09-20T01:40:05.389Z,33.9
2018-09-20T01:41:07.527Z,33.8
2018-09-20T01:42:09.695Z,33.8
2018-09-20T01:43:12.145Z,33.8
2018-09-20T01:44:14.592Z,34
2018-09-20T01:45:16.747Z,33.8
2018-09-20T01:46:19.177Z,33.9
2018-09-20T01:47:21.616Z,34
2018-09-20T01:48:24.053Z,33.8
2018-09-20T01:49:26.494Z,33.8
2018-09-20T01:50:28.638Z,33.8
2018-09-20T01:51:31.070Z,33.8
2018-09-20T01:52:33.509Z,33.8
2018-09-20T01:53:35.933Z,33.9
2018-09-20T01:54:38.352Z,33.9
2018-09-20T01:55:40.774Z,34
2018-09-20T01:56:43.206Z,33.9
2018-09-20T01:57:45.637Z,33.8
2018-09-20T01:58:48.080Z,33.9
2018-09-20T01:59:50.505Z,33.9
2018-09-20T02:00:52.967Z,33.8
2018-09-20T02:01:55.405Z,33.8
2018-09-20T02:02:57.826Z,33.9
2018-09-20T02:04:00.260Z,33.9
2018-09-20T02:05:02.697Z,33.9
2018-09-20T02:06:05.142Z,33.9
2018-09-20T02:07:07.575Z,33.8
2018-09-20T02:08:09.728Z,33.9
2018-09-20T02:09:11.898Z,33.7
2018-09-20T02:10:14.333Z,33.8
2018-09-20T02:11:16.763Z,33.8
2018-09-20T02:12:18.912Z,33.8
2018-09-20T02:13:21.036Z,33.9
2018-09-20T02:14:23.468Z,34
2018-09-20T02:15:25.901Z,33.9
2018-09-20T02:16:28.339Z,33.9
2018-09-20T02:17:30.754Z,33.9
2018-09-20T02:18:33.197Z,33.8
2018-09-20T02:19:35.336Z,33.8
2018-09-20T02:20:37.767Z,34
2018-09-20T02:21:39.943Z,33.9
2018-09-20T02:22:42.372Z,33.9
2018-09-20T02:23:44.805Z,33.9
2018-09-20T02:24:47.227Z,34
2018-09-20T02:25:49.657Z,33.9
2018-09-20T02:26:52.087Z,34
2018-09-20T02:27:54.536Z,34
2018-09-20T02:28:56.967Z,34
2018-09-20T02:29:59.422Z,33.8
2018-09-20T02:31:01.847Z,33.9
2018-09-20T02:32:04.282Z,33.9
2018-09-20T02:33:06.724Z,33.8
2018-09-20T02:34:09.143Z,34
2018-09-20T02:35:11.567Z,33.9
2018-09-20T02:36:14.004Z,33.9
2018-09-20T02:37:16.444Z,33.9
2018-09-20T02:38:18.886Z,33.9
2018-09-20T02:39:21.328Z,34
2018-09-20T02:40:23.837Z,33.9
2018-09-20T02:41:26.365Z,34
2018-09-20T02:42:28.794Z,33.9
2018-09-20T02:43:31.231Z,34
2018-09-20T02:44:33.667Z,34
2018-09-20T02:45:36.144Z,33.8
2018-09-20T02:46:38.287Z,33.9
2018-09-20T02:47:40.727Z,34
2018-09-20T02:48:42.873Z,34
2018-09-20T02:49:45.299Z,33.9
2018-09-20T02:50:47.481Z,34
2018-09-20T02:51:49.617Z,34
2018-09-20T02:52:52.048Z,33.9
2018-09-20T02:53:54.478Z,34.1
2018-09-20T02:54:56.916Z,33.9
2018-09-20T02:55:59.347Z,34
2018-09-20T02:57:01.789Z,33.9
2018-09-20T02:58:04.227Z,34
2018-09-20T02:59:07.108Z,34.1
2018-09-20T03:00:09.805Z,34
2018-09-20T03:01:11.956Z,33.9
2018-09-20T03:02:14.386Z,33.9
2018-09-20T03:03:16.837Z,33.9
2018-09-20T03:04:19.006Z,33.9
2018-09-20T03:05:21.440Z,33.7
2018-09-20T03:06:23.865Z,33.8
2018-09-20T03:07:26.296Z,33.8
2018-09-20T03:08:28.455Z,33.8
2018-09-20T03:09:30.886Z,33.7
2018-09-20T03:10:33.058Z,33.7
2018-09-20T03:11:35.214Z,33.8
2018-09-20T03:12:37.649Z,33.7
2018-09-20T03:13:40.076Z,33.7
2018-09-20T03:14:42.504Z,33.8
2018-09-20T03:15:44.943Z,33.7
2018-09-20T03:16:46.831Z,33.7
2018-09-20T03:17:49.257Z,33.8
2018-09-20T03:18:51.697Z,33.6
2018-09-20T03:19:54.122Z,33.7
2018-09-20T03:20:56.554Z,33.7
2018-09-20T03:21:58.988Z,33.6
2018-09-20T03:23:01.426Z,33.5
2018-09-20T03:24:03.868Z,33.6
2018-09-20T03:25:06.289Z,33.5
2018-09-20T03:26:08.723Z,33.5
2018-09-20T03:27:11.164Z,33.6
2018-09-20T03:28:13.595Z,33.5
2018-09-20T03:29:16.038Z,33.6
2018-09-20T03:30:18.685Z,33.5
2018-09-20T03:31:21.857Z,33.5
2018-09-20T03:32:24.288Z,33.6
2018-09-20T03:33:26.723Z,33.6
2018-09-20T03:34:29.168Z,33.5
2018-09-20T03:35:31.598Z,33.5
2018-09-20T03:36:34.033Z,33.6
2018-09-20T03:37:36.472Z,33.5
2018-09-20T03:38:38.925Z,33.5
2018-09-20T03:39:41.066Z,33.3
2018-09-20T03:40:43.498Z,33.5
2018-09-20T03:41:45.935Z,33.4
2018-09-20T03:42:48.367Z,33.4
2018-09-20T03:43:50.251Z,33.5
2018-09-20T03:44:52.682Z,33.4
2018-09-20T03:45:55.114Z,33.5
2018-09-20T03:46:57.547Z,33.5
2018-09-20T03:47:59.987Z,33.4
2018-09-20T03:49:02.422Z,33.5
2018-09-20T03:50:04.867Z,33.4
2018-09-20T03:51:07.031Z,33.4
2018-09-20T03:52:09.460Z,33.5
2018-09-20T03:53:11.636Z,33.3
2018-09-20T03:54:13.801Z,33.5
2018-09-20T03:55:16.229Z,33.3
2018-09-20T03:56:17.826Z,33.5
2018-09-20T03:57:20.293Z,33.4
2018-09-20T03:58:22.485Z,33.4
2018-09-20T03:59:24.916Z,33.5
2018-09-20T04:00:26.826Z,33.2
2018-09-20T04:01:28.994Z,33.2
2018-09-20T04:02:31.149Z,33.4
2018-09-20T04:03:33.584Z,33.4
2018-09-20T04:04:35.719Z,33.4
2018-09-20T04:05:38.138Z,33.3
2018-09-20T04:06:40.567Z,33.3
2018-09-20T04:07:43.007Z,33.4
2018-09-20T04:08:45.464Z,33.2
2018-09-20T04:09:47.954Z,33.3
2018-09-20T04:10:50.845Z,33.3
2018-09-20T04:11:53.275Z,33.4
2018-09-20T04:12:55.708Z,33.5
2018-09-20T04:13:58.148Z,33.3
2018-09-20T04:15:00.576Z,33.3
2018-09-20T04:16:03.019Z,33.3
2018-09-20T04:17:05.452Z,33.4
2018-09-20T04:18:07.621Z,33.3
2018-09-20T04:19:10.059Z,33.3
2018-09-20T04:20:12.486Z,33.4
2018-09-20T04:21:14.954Z,33.4
2018-09-20T04:22:17.097Z,33.3
2018-09-20T04:23:19.247Z,33.4
2018-09-20T04:24:21.695Z,33.4
2018-09-20T04:25:24.124Z,33.3
2018-09-20T04:26:26.580Z,33.3
2018-09-20T04:27:29.029Z,33.3
2018-09-20T04:28:31.182Z,33.3
2018-09-20T04:29:33.615Z,33.3
2018-09-20T04:30:35.790Z,33.3
2018-09-20T04:31:38.339Z,33.3
2018-09-20T04:32:41.002Z,33.4
2018-09-20T04:33:43.436Z,33.3
2018-09-20T04:34:45.882Z,33.3
2018-09-20T04:35:48.318Z,33.2
2018-09-20T04:36:50.749Z,33.4
2018-09-20T04:37:53.196Z,33.2
2018-09-20T04:38:55.628Z,33.5
2018-09-20T04:39:57.794Z,33.3
2018-09-20T04:41:00.228Z,33.3
2018-09-20T04:42:02.678Z,33.4
2018-09-20T04:43:04.854Z,33.3
2018-09-20T04:44:07.012Z,33.3
2018-09-20T04:45:09.442Z,33.4
2018-09-20T04:46:11.867Z,33.3
2018-09-20T04:47:14.307Z,33.1
2018-09-20T04:48:16.738Z,33.2
2018-09-20T04:49:19.162Z,33.3
2018-09-20T04:50:21.601Z,33.3
2018-09-20T04:51:24.033Z,33.2
2018-09-20T04:52:26.465Z,33.3
2018-09-20T04:53:29.129Z,33.3
2018-09-20T04:54:31.921Z,33.3
2018-09-20T04:55:34.354Z,33.2
2018-09-20T04:56:36.509Z,33.3
2018-09-20T04:57:38.964Z,33.2
2018-09-20T04:58:41.403Z,33.3
2018-09-20T04:59:43.883Z,33.3
2018-09-20T05:00:46.029Z,33.3
2018-09-20T05:01:48.469Z,33.3
2018-09-20T05:02:50.918Z,33.2
2018-09-20T05:03:53.380Z,33.2
2018-09-20T05:04:55.812Z,33.3
2018-09-20T05:05:58.289Z,33.2
2018-09-20T05:07:00.740Z,33.2
2018-09-20T05:08:03.183Z,33.4
2018-09-20T05:09:05.624Z,33.3
2018-09-20T05:10:08.053Z,33.2
2018-09-20T05:11:10.205Z,33.3
2018-09-20T05:12:12.636Z,33.2
2018-09-20T05:13:15.062Z,33.2
2018-09-20T05:14:17.487Z,33.3
2018-09-20T05:15:19.931Z,33.1
2018-09-20T05:16:22.397Z,33.2
2018-09-20T05:17:24.829Z,33.2
2018-09-20T05:18:27.264Z,33.3
2018-09-20T05:19:29.758Z,33.3
2018-09-20T05:20:32.235Z,33.3
2018-09-20T05:21:34.698Z,33.3
2018-09-20T05:22:37.129Z,33.3
2018-09-20T05:23:39.570Z,33.1
2018-09-20T05:24:41.999Z,33.2
2018-09-20T05:25:44.447Z,33.2
2018-09-20T05:26:46.881Z,33.2
2018-09-20T05:27:49.304Z,33.2
2018-09-20T05:28:51.738Z,33.2
2018-09-20T05:29:53.892Z,33.1
2018-09-20T05:30:56.325Z,33.1
2018-09-20T05:31:58.751Z,33.3
2018-09-20T05:33:01.186Z,33.1
2018-09-20T05:34:03.343Z,33.2
2018-09-20T05:35:05.493Z,33.2
2018-09-20T05:36:07.941Z,33.2
2018-09-20T05:37:10.383Z,33.1
2018-09-20T05:38:12.816Z,33.2
2018-09-20T05:39:15.254Z,33.2
2018-09-20T05:40:17.699Z,33.2
2018-09-20T05:41:19.848Z,33.2
2018-09-20T05:42:22.288Z,33.2
2018-09-20T05:43:24.804Z,33.1
2018-09-20T05:44:27.311Z,33.2
2018-09-20T05:45:29.737Z,33.1
2018-09-20T05:46:32.163Z,33.3
2018-09-20T05:47:34.590Z,33.3
2018-09-20T05:48:37.039Z,33.2
2018-09-20T05:49:39.455Z,33.3
2018-09-20T05:50:42.000Z,33.4
2018-09-20T05:51:44.590Z,33.2
2018-09-20T05:52:47.025Z,33.2
2018-09-20T05:53:49.206Z,33.1
2018-09-20T05:54:51.729Z,33.1
2018-09-20T05:55:53.918Z,33.2
2018-09-20T05:56:56.356Z,33.3
2018-09-20T05:57:58.256Z,33.2
2018-09-20T05:59:00.421Z,33.2
2018-09-20T06:00:02.565Z,33.3
2018-09-20T06:01:05.001Z,33.2
2018-09-20T06:02:07.168Z,33.2
2018-09-20T06:03:09.297Z,33.1
2018-09-20T06:04:11.727Z,33.2
2018-09-20T06:05:14.166Z,33.1
2018-09-20T06:06:16.336Z,33.2
2018-09-20T06:07:18.781Z,33.2
2018-09-20T06:08:21.252Z,33.3
2018-09-20T06:09:23.697Z,33.3
2018-09-20T06:10:26.155Z,33.2
2018-09-20T06:11:28.596Z,33.3
2018-09-20T06:12:30.727Z,33.2
2018-09-20T06:13:33.158Z,33.1
2018-09-20T06:14:35.597Z,33.1
2018-09-20T06:15:37.754Z,33.1
2018-09-20T06:16:39.898Z,33.2
2018-09-20T06:17:42.351Z,33.2
2018-09-20T06:18:44.776Z,33.2
2018-09-20T06:19:47.234Z,33.3
2018-09-20T06:20:49.667Z,33.2
2018-09-20T06:21:52.248Z,33.3
2018-09-20T06:22:55.037Z,33.1
2018-09-20T06:23:57.482Z,33.1
2018-09-20T06:24:59.939Z,33.2
2018-09-20T06:26:02.407Z,33.2
2018-09-20T06:27:04.846Z,33.2
2018-09-20T06:28:07.293Z,33.3
2018-09-20T06:29:09.769Z,33.2
2018-09-20T06:30:12.207Z,33.2
2018-09-20T06:31:14.640Z,33.3
2018-09-20T06:32:17.070Z,33.1
2018-09-20T06:33:19.510Z,33.2
2018-09-20T06:34:21.945Z,33.1
2018-09-20T06:35:24.369Z,33.3
2018-09-20T06:36:26.798Z,33.3
2018-09-20T06:37:29.235Z,33.3
2018-09-20T06:38:31.667Z,33.2
2018-09-20T06:39:34.097Z,33.3
2018-09-20T06:40:36.537Z,33.2
2018-09-20T06:41:38.417Z,33.2
2018-09-20T06:42:40.866Z,33.2
2018-09-20T06:43:43.309Z,33.3
2018-09-20T06:44:45.737Z,33.2
2018-09-20T06:45:48.166Z,33.3
2018-09-20T06:46:50.611Z,33.1
2018-09-20T06:47:53.040Z,33.2
2018-09-20T06:48:55.500Z,33.2
2018-09-20T06:49:57.925Z,33.3
2018-09-20T06:51:00.362Z,33.2
2018-09-20T06:52:02.780Z,33.2
2018-09-20T06:53:05.209Z,33.2
2018-09-20T06:54:07.637Z,33.1
2018-09-20T06:55:10.073Z,33.1
2018-09-20T06:56:12.218Z,33.1
2018-09-20T06:57:14.654Z,33.1
2018-09-20T06:58:17.115Z,33.2
2018-09-20T06:59:19.554Z,33.3
2018-09-20T07:00:21.995Z,33.1
2018-09-20T07:01:24.420Z,33.3
2018-09-20T07:02:26.572Z,33.2
2018-09-20T07:03:28.998Z,33.2
2018-09-20T07:04:31.427Z,33.2
2018-09-20T07:05:33.863Z,33.2
2018-09-20T07:06:36.297Z,33.2
2018-09-20T07:07:38.732Z,33.2
2018-09-20T07:08:41.181Z,33.2
2018-09-20T07:09:43.611Z,33.2
2018-09-20T07:10:46.037Z,33.1
2018-09-20T07:11:48.191Z,33.2
2018-09-20T07:12:50.620Z,33.2
2018-09-20T07:13:53.060Z,33.2
2018-09-20T07:14:55.213Z,33.2
2018-09-20T07:15:57.659Z,33.3
2018-09-20T07:17:00.105Z,33.2
2018-09-20T07:18:02.541Z,33.1
2018-09-20T07:19:05.029Z,33.1
2018-09-20T07:20:07.609Z,33.1
2018-09-20T07:21:10.054Z,33.2
2018-09-20T07:22:12.482Z,33.2
2018-09-20T07:23:14.917Z,33.2
2018-09-20T07:24:17.076Z,33.1
2018-09-20T07:25:19.801Z,33
2018-09-20T07:26:22.730Z,33.1
2018-09-20T07:27:25.174Z,33.1
2018-09-20T07:28:27.592Z,33
2018-09-20T07:29:30.025Z,33.1
2018-09-20T07:30:32.467Z,33.1
2018-09-20T07:31:34.907Z,33.1
2018-09-20T07:32:37.444Z,33.1
2018-09-20T07:33:39.735Z,33.1
2018-09-20T07:34:42.179Z,33.2
2018-09-20T07:35:44.350Z,33.1
2018-09-20T07:36:46.778Z,33.1
2018-09-20T07:37:49.218Z,33
2018-09-20T07:38:51.398Z,33
2018-09-20T07:39:53.827Z,33.1
2018-09-20T07:40:56.266Z,33
2018-09-20T07:41:58.701Z,33.1
2018-09-20T07:43:01.149Z,33.1
2018-09-20T07:44:03.586Z,33.2
2018-09-20T07:45:05.758Z,33.1
2018-09-20T07:46:07.908Z,33.1
2018-09-20T07:47:10.344Z,33.1
2018-09-20T07:48:12.777Z,33
2018-09-20T07:49:14.962Z,33.2
2018-09-20T07:50:17.385Z,33.2
2018-09-20T07:51:19.545Z,33.1
2018-09-20T07:52:21.968Z,33.1
2018-09-20T07:53:24.407Z,33.1
2018-09-20T07:54:26.548Z,33.2
2018-09-20T07:55:28.980Z,33.1
2018-09-20T07:56:31.453Z,32.9
2018-09-20T07:57:34.030Z,32.9
2018-09-20T07:58:36.458Z,33.1
2018-09-20T07:59:38.903Z,33
2018-09-20T08:00:41.364Z,33
2018-09-20T08:01:44.109Z,33.1
2018-09-20T08:02:46.612Z,33
2018-09-20T08:03:49.049Z,33.1
2018-09-20T08:04:51.517Z,33
2018-09-20T08:05:53.937Z,33
2018-09-20T08:06:56.420Z,33
2018-09-20T08:07:58.927Z,33
2018-09-20T08:09:01.360Z,33.1
2018-09-20T08:10:03.786Z,33.1
2018-09-20T08:11:06.239Z,33
2018-09-20T08:12:08.666Z,33.1
2018-09-20T08:13:10.807Z,33.1
2018-09-20T08:14:13.237Z,33
2018-09-20T08:15:15.675Z,33.1
2018-09-20T08:16:18.127Z,33.1
2018-09-20T08:17:20.570Z,33
2018-09-20T08:18:22.727Z,33
2018-09-20T08:19:25.151Z,33.1
2018-09-20T08:20:27.580Z,33
2018-09-20T08:21:30.104Z,33.1
2018-09-20T08:22:32.741Z,33.1
2018-09-20T08:23:35.337Z,32.9
2018-09-20T08:24:37.787Z,33.1
2018-09-20T08:25:40.230Z,33
2018-09-20T08:26:42.668Z,33.1
2018-09-20T08:27:45.266Z,33.1
2018-09-20T08:28:47.893Z,33.1
2018-09-20T08:29:50.053Z,32.9
2018-09-20T08:30:52.485Z,33
2018-09-20T08:31:54.915Z,33
2018-09-20T08:32:57.339Z,33.1
2018-09-20T08:33:59.774Z,33.1
2018-09-20T08:35:02.222Z,33.1
2018-09-20T08:36:04.661Z,33
2018-09-20T08:37:06.880Z,33.1
2018-09-20T08:38:09.602Z,33
2018-09-20T08:39:12.033Z,33.1
2018-09-20T08:40:14.471Z,33.1
2018-09-20T08:41:16.908Z,33
2018-09-20T08:42:19.423Z,33.1
2018-09-20T08:43:21.845Z,33.1
2018-09-20T08:44:24.029Z,33
2018-09-20T08:45:26.215Z,33.1
2018-09-20T08:46:28.643Z,33.1
2018-09-20T08:47:31.092Z,33
2018-09-20T08:48:33.522Z,33.1
2018-09-20T08:49:35.955Z,33.1
2018-09-20T08:50:38.385Z,33.1
2018-09-20T08:51:40.537Z,33.1
2018-09-20T08:52:43.017Z,33
2018-09-20T08:53:45.165Z,33.1
2018-09-20T08:54:47.639Z,33.1
2018-09-20T08:55:50.067Z,33.1
2018-09-20T08:56:52.677Z,33.1
2018-09-20T08:57:55.520Z,33.1
2018-09-20T08:58:57.942Z,33.1
2018-09-20T09:00:00.368Z,33.1
2018-09-20T09:01:02.797Z,32.9
2018-09-20T09:02:05.225Z,33.1
2018-09-20T09:03:07.663Z,33
2018-09-20T09:04:10.090Z,33
2018-09-20T09:05:12.518Z,33.2
2018-09-20T09:06:14.959Z,33
2018-09-20T09:07:17.393Z,33.1
2018-09-20T09:08:19.849Z,33.1
2018-09-20T09:09:22.279Z,33.1
2018-09-20T09:10:24.712Z,33
2018-09-20T09:11:27.152Z,33.1
2018-09-20T09:12:29.321Z,33.1
2018-09-20T09:13:31.738Z,33.2
2018-09-20T09:14:34.317Z,33
2018-09-20T09:15:36.481Z,33
2018-09-20T09:16:38.924Z,33
2018-09-20T09:17:41.359Z,33.1
2018-09-20T09:18:43.791Z,33.1
2018-09-20T09:19:46.224Z,33.1
2018-09-20T09:20:48.658Z,33.1
2018-09-20T09:21:51.093Z,33.2
2018-09-20T09:22:53.526Z,33.1
2018-09-20T09:23:55.957Z,33
2018-09-20T09:24:58.417Z,33.1
2018-09-20T09:26:00.840Z,33
2018-09-20T09:27:03.009Z,33.1
2018-09-20T09:28:05.493Z,33.1
2018-09-20T09:29:07.922Z,33.1
2018-09-20T09:30:10.345Z,33.1
2018-09-20T09:31:12.789Z,33.1
2018-09-20T09:32:15.215Z,33.1
2018-09-20T09:33:17.649Z,33
2018-09-20T09:34:20.270Z,33
2018-09-20T09:35:22.928Z,33.1
2018-09-20T09:36:25.373Z,33.1
2018-09-20T09:37:27.818Z,33.1
2018-09-20T09:38:30.290Z,33
2018-09-20T09:39:32.723Z,33.1
2018-09-20T09:40:34.867Z,33.1
2018-09-20T09:41:37.308Z,33.1
2018-09-20T09:42:39.749Z,33
2018-09-20T09:43:42.185Z,33
2018-09-20T09:44:44.615Z,33.1
2018-09-20T09:45:47.049Z,33
2018-09-20T09:46:49.204Z,33.1
2018-09-20T09:47:51.653Z,33.2
2018-09-20T09:48:54.086Z,33.2
2018-09-20T09:49:56.522Z,33.1
2018-09-20T09:50:58.966Z,33.1
2018-09-20T09:52:01.399Z,33
2018-09-20T09:53:03.834Z,33.2
2018-09-20T09:54:06.261Z,33
2018-09-20T09:55:08.689Z,33
2018-09-20T09:56:11.117Z,33
2018-09-20T09:57:13.554Z,33.1
2018-09-20T09:58:15.989Z,33.1
2018-09-20T09:59:18.143Z,33.1
2018-09-20T10:00:20.593Z,33.1
2018-09-20T10:01:23.027Z,33.2
2018-09-20T10:02:25.559Z,33.1
2018-09-20T10:03:28.041Z,33
2018-09-20T10:04:30.474Z,33.1
2018-09-20T10:05:32.942Z,33.1
2018-09-20T10:06:35.370Z,33.1
2018-09-20T10:07:37.804Z,33.1
2018-09-20T10:08:40.248Z,33
2018-09-20T10:09:42.677Z,33.1
2018-09-20T10:10:44.838Z,33.1
2018-09-20T10:11:47.305Z,33.1
2018-09-20T10:12:49.743Z,33.1
2018-09-20T10:13:52.085Z,33
2018-09-20T10:14:54.979Z,33.2
2018-09-20T10:15:57.430Z,33.1
2018-09-20T10:16:59.860Z,33.1
2018-09-20T10:18:02.299Z,33
2018-09-20T10:19:04.732Z,33.1
2018-09-20T10:20:07.283Z,33.1
2018-09-20T10:21:09.811Z,33.1
2018-09-20T10:22:12.248Z,33.1
2018-09-20T10:23:14.687Z,33
2018-09-20T10:24:17.131Z,33.2
2018-09-20T10:25:19.587Z,33.2
2018-09-20T10:26:22.019Z,33.2
2018-09-20T10:27:24.441Z,33
2018-09-20T10:28:26.870Z,33
2018-09-20T10:29:29.307Z,33.2
2018-09-20T10:30:31.747Z,33.1
2018-09-20T10:31:34.183Z,33
2018-09-20T10:32:36.820Z,33.2
2018-09-20T10:33:38.947Z,33.2
2018-09-20T10:34:41.378Z,33.2
2018-09-20T10:35:43.804Z,33.1
2018-09-20T10:36:46.238Z,33.1
2018-09-20T10:37:48.430Z,33
2018-09-20T10:38:50.865Z,33.1
2018-09-20T10:39:53.293Z,33.1
2018-09-20T10:40:55.742Z,33.1
2018-09-20T10:41:58.183Z,33.1
2018-09-20T10:43:00.672Z,33.2
2018-09-20T10:44:03.106Z,33.2
2018-09-20T10:45:05.534Z,33.1
2018-09-20T10:46:07.977Z,33.2
2018-09-20T10:47:10.208Z,33.1
2018-09-20T10:48:12.522Z,33.1
2018-09-20T10:49:14.955Z,33.1
2018-09-20T10:50:17.099Z,33.1
2018-09-20T10:51:19.531Z,33
2018-09-20T10:52:21.964Z,33.1
2018-09-20T10:53:24.421Z,33.1
2018-09-20T10:54:26.891Z,33.1
2018-09-20T10:55:29.436Z,33.2
2018-09-20T10:56:31.595Z,33.1
2018-09-20T10:57:34.029Z,33
2018-09-20T10:58:36.474Z,33.1
2018-09-20T10:59:38.909Z,33.1
2018-09-20T11:00:41.338Z,33.1
2018-09-20T11:01:43.793Z,33.2
2018-09-20T11:02:46.221Z,33.1
2018-09-20T11:03:48.381Z,33.1
2018-09-20T11:04:50.826Z,33.1
2018-09-20T11:05:53.257Z,33.1
2018-09-20T11:06:55.704Z,33
2018-09-20T11:07:58.127Z,33.1
2018-09-20T11:09:00.572Z,33.1
2018-09-20T11:10:03.016Z,33.1
2018-09-20T11:11:05.844Z,33.1
2018-09-20T11:12:08.610Z,33.2
2018-09-20T11:13:11.045Z,33.1
2018-09-20T11:14:13.471Z,33.2
2018-09-20T11:15:15.906Z,33.1
2018-09-20T11:16:18.329Z,33.1
2018-09-20T11:17:20.760Z,33.2
2018-09-20T11:18:23.204Z,33.2
2018-09-20T11:19:25.639Z,33.3
2018-09-20T11:20:28.077Z,33.2
2018-09-20T11:21:30.508Z,33.1
2018-09-20T11:22:32.932Z,33.2
2018-09-20T11:23:35.367Z,33.2
2018-09-20T11:24:37.800Z,33.1
2018-09-20T11:25:40.256Z,33.2
2018-09-20T11:26:42.728Z,33.2
2018-09-20T11:27:45.159Z,33.1
2018-09-20T11:28:47.600Z,33.2
2018-09-20T11:29:49.759Z,33.1
2018-09-20T11:30:52.217Z,33.2
2018-09-20T11:31:54.658Z,33.1
2018-09-20T11:32:57.095Z,33.1
2018-09-20T11:33:59.536Z,33.1
2018-09-20T11:35:01.987Z,33.2
2018-09-20T11:36:04.410Z,33
2018-09-20T11:37:06.849Z,33.1
2018-09-20T11:38:08.989Z,33.1
2018-09-20T11:39:11.163Z,33
2018-09-20T11:40:13.597Z,33.2
2018-09-20T11:41:16.053Z,33.1
2018-09-20T11:42:18.479Z,33.1
2018-09-20T11:43:20.916Z,33.1
2018-09-20T11:44:23.351Z,33.1
2018-09-20T11:45:25.785Z,33.1
2018-09-20T11:46:28.281Z,33.1
2018-09-20T11:47:30.845Z,33.1
2018-09-20T11:48:33.269Z,33.2
2018-09-20T11:49:35.699Z,33.1
2018-09-20T11:50:38.141Z,33.2
2018-09-20T11:51:40.574Z,33.1
2018-09-20T11:52:43.015Z,33.2
2018-09-20T11:53:45.453Z,33
2018-09-20T11:54:47.663Z,33
2018-09-20T11:55:50.175Z,33.1
2018-09-20T11:56:52.699Z,33
2018-09-20T11:57:55.150Z,33.1
2018-09-20T11:58:57.610Z,33.2
2018-09-20T12:00:00.046Z,33.2
2018-09-20T12:01:02.480Z,33.1
2018-09-20T12:02:04.867Z,33.1
2018-09-20T12:03:07.501Z,33.2
2018-09-20T12:04:09.941Z,33.1
2018-09-20T12:05:12.102Z,33
2018-09-20T12:06:14.532Z,33.1
2018-09-20T12:07:16.698Z,33.2
2018-09-20T12:08:19.132Z,33.2
2018-09-20T12:09:21.290Z,33.1
2018-09-20T12:10:23.727Z,33.2
2018-09-20T12:11:26.173Z,33.1
2018-09-20T12:12:28.339Z,33.1
2018-09-20T12:13:30.212Z,33.2
2018-09-20T12:14:31.627Z,33.2
2018-09-20T12:15:33.954Z,33.1
2018-09-20T12:16:35.832Z,33.3
2018-09-20T12:17:37.481Z,33.2
2018-09-20T12:18:39.654Z,33.2
2018-09-20T12:19:42.098Z,33.1
2018-09-20T12:20:44.536Z,33.2
2018-09-20T12:21:46.966Z,33.2
2018-09-20T12:22:48.863Z,33.2
2018-09-20T12:23:51.291Z,33.3
2018-09-20T12:24:53.716Z,33.2
2018-09-20T12:25:56.022Z,33.2
2018-09-20T12:26:58.352Z,33.2
2018-09-20T12:28:00.792Z,33.3
2018-09-20T12:29:03.222Z,33.2
2018-09-20T12:30:05.391Z,33.1
2018-09-20T12:31:07.820Z,33.2
2018-09-20T12:32:10.381Z,33.3
2018-09-20T12:33:12.824Z,33.2
2018-09-20T12:34:15.284Z,33.2
2018-09-20T12:35:17.744Z,33.4
2018-09-20T12:36:20.301Z,33.2
2018-09-20T12:37:22.724Z,33.2
2018-09-20T12:38:25.163Z,33.4
2018-09-20T12:39:27.592Z,33.2
2018-09-20T12:40:29.503Z,33.2
2018-09-20T12:41:31.954Z,33.3
2018-09-20T12:42:34.380Z,33.2
2018-09-20T12:43:36.814Z,33.3
2018-09-20T12:44:39.254Z,33.2
2018-09-20T12:45:41.423Z,33.2
2018-09-20T12:46:43.848Z,33.2
2018-09-20T12:47:46.287Z,33.3
2018-09-20T12:48:48.720Z,33.2
2018-09-20T12:49:51.152Z,33.3
2018-09-20T12:50:53.604Z,33.2
2018-09-20T12:51:56.031Z,33.3
2018-09-20T12:52:58.464Z,33.2
2018-09-20T12:54:00.898Z,33.3
2018-09-20T12:55:03.332Z,33.2
2018-09-20T12:56:05.782Z,33.2
2018-09-20T12:57:08.218Z,33.2
2018-09-20T12:58:10.650Z,33.2
2018-09-20T12:59:13.084Z,33.1
2018-09-20T13:00:15.524Z,33.3
2018-09-20T13:01:17.697Z,33.3
2018-09-20T13:02:20.141Z,33.3
2018-09-20T13:03:22.298Z,33.2
2018-09-20T13:04:24.722Z,33.2
2018-09-20T13:05:27.157Z,33.2
2018-09-20T13:06:29.596Z,33.3
2018-09-20T13:07:32.029Z,33.3
2018-09-20T13:08:34.479Z,33.2
2018-09-20T13:09:36.910Z,33.2
2018-09-20T13:10:39.344Z,33.3
2018-09-20T13:11:41.766Z,33.1
2018-09-20T13:12:44.202Z,33.2
2018-09-20T13:13:46.648Z,33.2
2018-09-20T13:14:49.079Z,33.3
2018-09-20T13:15:51.510Z,33.3
2018-09-20T13:16:53.956Z,33.1
2018-09-20T13:17:56.438Z,33.2
2018-09-20T13:18:58.877Z,33.2
2018-09-20T13:20:01.499Z,33.2
2018-09-20T13:21:04.251Z,33.2
2018-09-20T13:22:06.684Z,33.1
2018-09-20T13:23:09.107Z,33.1
2018-09-20T13:24:11.540Z,33.3
2018-09-20T13:25:13.734Z,33.3
2018-09-20T13:26:16.165Z,33.3
2018-09-20T13:27:18.610Z,33.2
2018-09-20T13:28:21.046Z,33.2
2018-09-20T13:29:23.497Z,33.3
2018-09-20T13:30:25.918Z,33.2
2018-09-20T13:31:28.082Z,33.2
2018-09-20T13:32:30.517Z,33.2
2018-09-20T13:33:32.684Z,33.1
2018-09-20T13:34:35.110Z,33.2
2018-09-20T13:35:37.536Z,33.2
2018-09-20T13:36:39.985Z,33
2018-09-20T13:37:42.423Z,33.3
2018-09-20T13:38:44.882Z,33.2
2018-09-20T13:39:47.311Z,33.1
2018-09-20T13:40:49.738Z,33.2
2018-09-20T13:41:52.176Z,33.1
2018-09-20T13:42:54.353Z,33.2
2018-09-20T13:43:56.782Z,33.2
2018-09-20T13:44:59.214Z,33.2
2018-09-20T13:46:01.638Z,33.3
2018-09-20T13:47:04.090Z,33.2
2018-09-20T13:48:06.538Z,33.1
2018-09-20T13:49:08.974Z,33.1
2018-09-20T13:50:11.410Z,33.2
2018-09-20T13:51:13.832Z,33.1
2018-09-20T13:52:16.258Z,33.2
2018-09-20T13:53:18.691Z,33.2
2018-09-20T13:54:21.154Z,33.2
2018-09-20T13:55:23.577Z,33.3
2018-09-20T13:56:26.076Z,33.2